sensor_id;sensor_type;location;lat;lon;timestamp;P1;durP1;ratioP1;P2;durP2;ratioP2
26512;SDS011;14186;53.822;10.152;2023-04-16T00:00:00;25.20;;;15.07;;
26512;SDS011;14186;53.822;10.152;2023-04-16T00:05:00;31.30;;;15.75;;
26512;SDS011;14186;53.822;10.152;2023-04-16T00:10:00;33.08;;;15.80;;
26512;SDS011;14186;53.822;10.152;2023-04-16T00:15:02;25.67;;;15.07;;
26512;SDS011;14186;53.822;10.152;2023-04-16T00:20:03;25.48;;;14.57;;
26512;SDS011;14186;53.822;10.152;2023-04-16T00:25:03;30.85;;;15.38;;
26512;SDS011;14186;53.822;10.152;2023-04-16T00:30:06;31.08;;;15.95;;
26512;SDS011;14186;53.822;10.152;2023-04-16T00:35:06;25.80;;;14.98;;
26512;SDS011;14186;53.822;10.152;2023-04-16T00:40:07;24.95;;;14.40;;
26512;SDS011;14186;53.822;10.152;2023-04-16T00:45:09;25.70;;;13.85;;
26512;SDS011;14186;53.822;10.152;2023-04-16T00:50:10;26.85;;;15.18;;
26512;SDS011;14186;53.822;10.152;2023-04-16T00:55:10;25.73;;;14.37;;
26512;SDS011;14186;53.822;10.152;2023-04-16T01:00:12;24.42;;;14.07;;
26512;SDS011;14186;53.822;10.152;2023-04-16T01:05:12;28.80;;;14.85;;
26512;SDS011;14186;53.822;10.152;2023-04-16T01:10:13;25.25;;;13.68;;
26512;SDS011;14186;53.822;10.152;2023-04-16T01:15:14;25.08;;;14.00;;
26512;SDS011;14186;53.822;10.152;2023-04-16T01:20:14;27.45;;;14.35;;
26512;SDS011;14186;53.822;10.152;2023-04-16T01:25:16;28.25;;;15.43;;
26512;SDS011;14186;53.822;10.152;2023-04-16T01:30:16;25.52;;;15.13;;
26512;SDS011;14186;53.822;10.152;2023-04-16T01:35:16;31.90;;;16.48;;
26512;SDS011;14186;53.822;10.152;2023-04-16T01:40:18;34.40;;;17.48;;
26512;SDS011;14186;53.822;10.152;2023-04-16T01:45:19;31.92;;;17.45;;
26512;SDS011;14186;53.822;10.152;2023-04-16T01:50:19;33.97;;;17.42;;
26512;SDS011;14186;53.822;10.152;2023-04-16T01:55:21;30.52;;;16.67;;
26512;SDS011;14186;53.822;10.152;2023-04-16T02:00:21;34.90;;;18.70;;
26512;SDS011;14186;53.822;10.152;2023-04-16T02:05:21;32.35;;;16.10;;
26512;SDS011;14186;53.822;10.152;2023-04-16T02:10:23;32.67;;;16.77;;
26512;SDS011;14186;53.822;10.152;2023-04-16T02:15:23;30.92;;;16.50;;
26512;SDS011;14186;53.822;10.152;2023-04-16T02:20:23;30.05;;;15.55;;
26512;SDS011;14186;53.822;10.152;2023-04-16T02:25:26;31.25;;;16.42;;
26512;SDS011;14186;53.822;10.152;2023-04-16T02:30:26;28.92;;;15.55;;
26512;SDS011;14186;53.822;10.152;2023-04-16T02:35:26;29.90;;;16.27;;
26512;SDS011;14186;53.822;10.152;2023-04-16T02:40:28;28.02;;;14.65;;
26512;SDS011;14186;53.822;10.152;2023-04-16T02:45:28;27.73;;;15.18;;
26512;SDS011;14186;53.822;10.152;2023-04-16T02:50:29;27.98;;;15.82;;
26512;SDS011;14186;53.822;10.152;2023-04-16T02:55:30;28.23;;;16.13;;
26512;SDS011;14186;53.822;10.152;2023-04-16T03:00:30;26.83;;;14.88;;
26512;SDS011;14186;53.822;10.152;2023-04-16T03:05:31;24.80;;;14.25;;
26512;SDS011;14186;53.822;10.152;2023-04-16T03:10:32;26.42;;;15.05;;
26512;SDS011;14186;53.822;10.152;2023-04-16T03:15:33;29.92;;;15.80;;
26512;SDS011;14186;53.822;10.152;2023-04-16T03:20:33;28.05;;;14.95;;
26512;SDS011;14186;53.822;10.152;2023-04-16T03:25:34;28.70;;;14.93;;
26512;SDS011;14186;53.822;10.152;2023-04-16T03:30:35;26.33;;;15.10;;
26512;SDS011;14186;53.822;10.152;2023-04-16T03:35:35;29.02;;;14.85;;
26512;SDS011;14186;53.822;10.152;2023-04-16T03:40:36;28.80;;;14.48;;
26512;SDS011;14186;53.822;10.152;2023-04-16T03:45:42;31.17;;;15.45;;
26512;SDS011;14186;53.822;10.152;2023-04-16T03:50:43;29.05;;;16.40;;
26512;SDS011;14186;53.822;10.152;2023-04-16T03:55:48;25.52;;;14.85;;
26512;SDS011;14186;53.822;10.152;2023-04-16T04:00:48;27.77;;;15.05;;
26512;SDS011;14186;53.822;10.152;2023-04-16T04:05:48;28.40;;;15.15;;
26512;SDS011;14186;53.822;10.152;2023-04-16T04:10:50;25.83;;;15.73;;
26512;SDS011;14186;53.822;10.152;2023-04-16T04:15:50;31.17;;;16.67;;
26512;SDS011;14186;53.822;10.152;2023-04-16T04:20:50;25.73;;;15.32;;
26512;SDS011;14186;53.822;10.152;2023-04-16T04:25:52;31.00;;;15.45;;
26512;SDS011;14186;53.822;10.152;2023-04-16T04:30:52;33.22;;;15.48;;
26512;SDS011;14186;53.822;10.152;2023-04-16T04:35:52;28.52;;;17.00;;
26512;SDS011;14186;53.822;10.152;2023-04-16T04:40:54;25.45;;;15.05;;
26512;SDS011;14186;53.822;10.152;2023-04-16T04:45:54;29.20;;;16.05;;
26512;SDS011;14186;53.822;10.152;2023-04-16T04:50:54;30.15;;;15.93;;
26512;SDS011;14186;53.822;10.152;2023-04-16T04:55:56;25.45;;;15.10;;
26512;SDS011;14186;53.822;10.152;2023-04-16T05:00:56;25.88;;;15.32;;
26512;SDS011;14186;53.822;10.152;2023-04-16T05:05:57;32.30;;;16.55;;
26512;SDS011;14186;53.822;10.152;2023-04-16T05:10:58;27.67;;;15.30;;
26512;SDS011;14186;53.822;10.152;2023-04-16T05:15:58;29.73;;;15.57;;
26512;SDS011;14186;53.822;10.152;2023-04-16T05:20:59;31.88;;;16.73;;
26512;SDS011;14186;53.822;10.152;2023-04-16T05:26:00;29.40;;;16.05;;
26512;SDS011;14186;53.822;10.152;2023-04-16T05:31:00;30.15;;;16.33;;
26512;SDS011;14186;53.822;10.152;2023-04-16T05:36:01;33.73;;;15.57;;
26512;SDS011;14186;53.822;10.152;2023-04-16T05:41:02;26.60;;;14.90;;
26512;SDS011;14186;53.822;10.152;2023-04-16T05:46:03;29.90;;;15.43;;
26512;SDS011;14186;53.822;10.152;2023-04-16T05:51:03;26.97;;;14.40;;
26512;SDS011;14186;53.822;10.152;2023-04-16T05:56:05;28.15;;;13.95;;
26512;SDS011;14186;53.822;10.152;2023-04-16T06:01:05;25.45;;;14.38;;
26512;SDS011;14186;53.822;10.152;2023-04-16T06:06:06;22.75;;;13.50;;
26512;SDS011;14186;53.822;10.152;2023-04-16T06:11:07;25.50;;;14.13;;
26512;SDS011;14186;53.822;10.152;2023-04-16T06:16:07;25.10;;;13.82;;
26512;SDS011;14186;53.822;10.152;2023-04-16T06:21:08;32.42;;;13.48;;
26512;SDS011;14186;53.822;10.152;2023-04-16T06:26:09;30.05;;;12.82;;
26512;SDS011;14186;53.822;10.152;2023-04-16T06:31:10;24.08;;;13.60;;
26512;SDS011;14186;53.822;10.152;2023-04-16T06:36:10;22.92;;;12.88;;
26512;SDS011;14186;53.822;10.152;2023-04-16T06:41:11;23.50;;;14.13;;
26512;SDS011;14186;53.822;10.152;2023-04-16T06:46:12;24.75;;;13.95;;
26512;SDS011;14186;53.822;10.152;2023-04-16T06:51:12;21.75;;;12.77;;
26512;SDS011;14186;53.822;10.152;2023-04-16T06:56:13;23.65;;;13.88;;
26512;SDS011;14186;53.822;10.152;2023-04-16T07:01:14;26.85;;;14.07;;
26512;SDS011;14186;53.822;10.152;2023-04-16T07:06:14;26.75;;;12.85;;
26512;SDS011;14186;53.822;10.152;2023-04-16T07:11:15;21.35;;;13.25;;
26512;SDS011;14186;53.822;10.152;2023-04-16T07:16:16;21.75;;;13.07;;
26512;SDS011;14186;53.822;10.152;2023-04-16T07:21:16;23.08;;;13.05;;
26512;SDS011;14186;53.822;10.152;2023-04-16T07:26:18;23.98;;;13.18;;
26512;SDS011;14186;53.822;10.152;2023-04-16T07:31:18;23.30;;;11.93;;
26512;SDS011;14186;53.822;10.152;2023-04-16T07:36:18;19.80;;;11.63;;
26512;SDS011;14186;53.822;10.152;2023-04-16T07:41:20;23.50;;;13.48;;
26512;SDS011;14186;53.822;10.152;2023-04-16T07:46:20;23.48;;;12.85;;
26512;SDS011;14186;53.822;10.152;2023-04-16T07:51:20;21.13;;;12.75;;
26512;SDS011;14186;53.822;10.152;2023-04-16T07:56:22;18.35;;;11.45;;
26512;SDS011;14186;53.822;10.152;2023-04-16T08:01:22;19.55;;;12.32;;
26512;SDS011;14186;53.822;10.152;2023-04-16T08:06:23;20.27;;;11.80;;
26512;SDS011;14186;53.822;10.152;2023-04-16T08:11:25;21.48;;;12.35;;
26512;SDS011;14186;53.822;10.152;2023-04-16T08:16:25;23.33;;;12.40;;
26512;SDS011;14186;53.822;10.152;2023-04-16T08:21:25;25.55;;;12.75;;
26512;SDS011;14186;53.822;10.152;2023-04-16T08:26:27;22.23;;;12.35;;
26512;SDS011;14186;53.822;10.152;2023-04-16T08:31:27;19.92;;;11.70;;
26512;SDS011;14186;53.822;10.152;2023-04-16T08:36:27;20.58;;;11.05;;
26512;SDS011;14186;53.822;10.152;2023-04-16T08:41:29;18.05;;;11.35;;
26512;SDS011;14186;53.822;10.152;2023-04-16T08:46:30;22.17;;;11.77;;
26512;SDS011;14186;53.822;10.152;2023-04-16T08:51:32;22.05;;;11.80;;
26512;SDS011;14186;53.822;10.152;2023-04-16T08:56:35;17.63;;;11.55;;
26512;SDS011;14186;53.822;10.152;2023-04-16T09:01:35;19.77;;;11.23;;
26512;SDS011;14186;53.822;10.152;2023-04-16T09:06:35;22.40;;;11.90;;
26512;SDS011;14186;53.822;10.152;2023-04-16T09:11:38;19.25;;;11.18;;
26512;SDS011;14186;53.822;10.152;2023-04-16T09:16:38;21.77;;;11.55;;
26512;SDS011;14186;53.822;10.152;2023-04-16T09:21:39;21.38;;;12.00;;
26512;SDS011;14186;53.822;10.152;2023-04-16T09:26:41;21.42;;;11.00;;
26512;SDS011;14186;53.822;10.152;2023-04-16T09:31:41;19.70;;;12.20;;
26512;SDS011;14186;53.822;10.152;2023-04-16T09:37:13;19.80;;;11.45;;
26512;SDS011;14186;53.822;10.152;2023-04-16T09:42:14;20.27;;;12.75;;
26512;SDS011;14186;53.822;10.152;2023-04-16T09:47:20;22.95;;;12.27;;
26512;SDS011;14186;53.822;10.152;2023-04-16T09:52:21;21.60;;;12.45;;
26512;SDS011;14186;53.822;10.152;2023-04-16T09:57:23;21.00;;;12.40;;
26512;SDS011;14186;53.822;10.152;2023-04-16T10:02:25;25.17;;;12.23;;
26512;SDS011;14186;53.822;10.152;2023-04-16T10:07:27;21.65;;;12.68;;
26512;SDS011;14186;53.822;10.152;2023-04-16T10:12:28;25.02;;;13.23;;
26512;SDS011;14186;53.822;10.152;2023-04-16T10:17:29;23.45;;;12.32;;
26512;SDS011;14186;53.822;10.152;2023-04-16T10:22:30;24.45;;;13.38;;
26512;SDS011;14186;53.822;10.152;2023-04-16T10:27:31;25.60;;;13.52;;
26512;SDS011;14186;53.822;10.152;2023-04-16T10:32:32;29.90;;;13.07;;
26512;SDS011;14186;53.822;10.152;2023-04-16T10:37:32;23.40;;;13.30;;
26512;SDS011;14186;53.822;10.152;2023-04-16T10:42:34;21.95;;;13.20;;
26512;SDS011;14186;53.822;10.152;2023-04-16T10:47:38;22.15;;;12.50;;
26512;SDS011;14186;53.822;10.152;2023-04-16T10:52:38;18.90;;;12.25;;
26512;SDS011;14186;53.822;10.152;2023-04-16T10:57:40;20.13;;;12.45;;
26512;SDS011;14186;53.822;10.152;2023-04-16T11:02:40;20.13;;;11.07;;
26512;SDS011;14186;53.822;10.152;2023-04-16T11:07:43;18.17;;;11.82;;
26512;SDS011;14186;53.822;10.152;2023-04-16T11:12:47;22.75;;;12.32;;
26512;SDS011;14186;53.822;10.152;2023-04-16T11:17:48;18.33;;;11.32;;
26512;SDS011;14186;53.822;10.152;2023-04-16T11:22:48;20.48;;;11.85;;
26512;SDS011;14186;53.822;10.152;2023-04-16T11:27:50;21.67;;;11.35;;
26512;SDS011;14186;53.822;10.152;2023-04-16T11:32:51;20.30;;;11.93;;
26512;SDS011;14186;53.822;10.152;2023-04-16T11:37:54;21.30;;;11.65;;
26512;SDS011;14186;53.822;10.152;2023-04-16T11:42:59;18.90;;;10.95;;
26512;SDS011;14186;53.822;10.152;2023-04-16T11:48:00;19.52;;;12.27;;
26512;SDS011;14186;53.822;10.152;2023-04-16T11:53:02;24.23;;;13.68;;
26512;SDS011;14186;53.822;10.152;2023-04-16T11:58:11;20.77;;;12.27;;
26512;SDS011;14186;53.822;10.152;2023-04-16T12:03:11;19.00;;;12.57;;
26512;SDS011;14186;53.822;10.152;2023-04-16T12:08:11;20.55;;;11.80;;
26512;SDS011;14186;53.822;10.152;2023-04-16T12:13:13;18.20;;;11.90;;
26512;SDS011;14186;53.822;10.152;2023-04-16T12:18:14;19.60;;;12.30;;
26512;SDS011;14186;53.822;10.152;2023-04-16T12:23:23;25.52;;;13.32;;
26512;SDS011;14186;53.822;10.152;2023-04-16T12:28:29;17.92;;;11.60;;
26512;SDS011;14186;53.822;10.152;2023-04-16T12:33:29;21.80;;;12.73;;
26512;SDS011;14186;53.822;10.152;2023-04-16T12:38:30;21.00;;;11.98;;
26512;SDS011;14186;53.822;10.152;2023-04-16T12:43:31;18.80;;;10.82;;
26512;SDS011;14186;53.822;10.152;2023-04-16T12:48:31;18.85;;;10.90;;
26512;SDS011;14186;53.822;10.152;2023-04-16T12:53:32;17.80;;;11.25;;
26512;SDS011;14186;53.822;10.152;2023-04-16T12:58:33;20.35;;;12.10;;
26512;SDS011;14186;53.822;10.152;2023-04-16T13:03:34;22.58;;;13.38;;
26512;SDS011;14186;53.822;10.152;2023-04-16T13:08:34;19.27;;;12.40;;
26512;SDS011;14186;53.822;10.152;2023-04-16T13:13:35;22.65;;;13.55;;
26512;SDS011;14186;53.822;10.152;2023-04-16T13:18:36;22.08;;;13.73;;
26512;SDS011;14186;53.822;10.152;2023-04-16T13:23:36;23.30;;;13.50;;
26512;SDS011;14186;53.822;10.152;2023-04-16T13:28:37;22.40;;;13.63;;
26512;SDS011;14186;53.822;10.152;2023-04-16T13:33:38;23.08;;;13.85;;
26512;SDS011;14186;53.822;10.152;2023-04-16T13:38:38;21.70;;;12.23;;
26512;SDS011;14186;53.822;10.152;2023-04-16T13:43:39;19.38;;;12.07;;
26512;SDS011;14186;53.822;10.152;2023-04-16T13:48:40;20.33;;;12.07;;
26512;SDS011;14186;53.822;10.152;2023-04-16T13:53:40;20.17;;;13.00;;
26512;SDS011;14186;53.822;10.152;2023-04-16T13:58:41;19.63;;;11.95;;
26512;SDS011;14186;53.822;10.152;2023-04-16T14:03:42;18.38;;;12.27;;
26512;SDS011;14186;53.822;10.152;2023-04-16T14:08:42;19.50;;;12.45;;
26512;SDS011;14186;53.822;10.152;2023-04-16T14:13:44;19.55;;;12.73;;
26512;SDS011;14186;53.822;10.152;2023-04-16T14:18:44;21.30;;;12.85;;
26512;SDS011;14186;53.822;10.152;2023-04-16T14:23:44;20.13;;;13.23;;
26512;SDS011;14186;53.822;10.152;2023-04-16T14:28:46;21.00;;;13.60;;
26512;SDS011;14186;53.822;10.152;2023-04-16T14:33:46;17.92;;;11.73;;
26512;SDS011;14186;53.822;10.152;2023-04-16T14:38:46;21.58;;;11.73;;
26512;SDS011;14186;53.822;10.152;2023-04-16T14:43:48;17.30;;;11.05;;
26512;SDS011;14186;53.822;10.152;2023-04-16T14:48:48;21.23;;;11.90;;
26512;SDS011;14186;53.822;10.152;2023-04-16T14:53:48;21.58;;;13.45;;
26512;SDS011;14186;53.822;10.152;2023-04-16T14:58:50;20.80;;;12.32;;
26512;SDS011;14186;53.822;10.152;2023-04-16T15:03:50;18.85;;;12.15;;
26512;SDS011;14186;53.822;10.152;2023-04-16T15:08:50;28.95;;;13.50;;
26512;SDS011;14186;53.822;10.152;2023-04-16T15:13:52;21.17;;;12.00;;
26512;SDS011;14186;53.822;10.152;2023-04-16T15:18:52;20.95;;;13.07;;
26512;SDS011;14186;53.822;10.152;2023-04-16T15:23:52;24.02;;;14.18;;
26512;SDS011;14186;53.822;10.152;2023-04-16T15:28:54;23.33;;;13.85;;
26512;SDS011;14186;53.822;10.152;2023-04-16T15:33:54;24.90;;;13.38;;
26512;SDS011;14186;53.822;10.152;2023-04-16T15:38:54;19.52;;;12.20;;
26512;SDS011;14186;53.822;10.152;2023-04-16T15:43:56;18.50;;;11.82;;
26512;SDS011;14186;53.822;10.152;2023-04-16T15:48:56;19.30;;;12.45;;
26512;SDS011;14186;53.822;10.152;2023-04-16T15:53:56;22.40;;;12.77;;
26512;SDS011;14186;53.822;10.152;2023-04-16T15:58:58;21.02;;;12.38;;
26512;SDS011;14186;53.822;10.152;2023-04-16T16:03:58;20.30;;;13.30;;
26512;SDS011;14186;53.822;10.152;2023-04-16T16:08:58;20.52;;;12.90;;
26512;SDS011;14186;53.822;10.152;2023-04-16T16:14:00;23.90;;;13.15;;
26512;SDS011;14186;53.822;10.152;2023-04-16T16:19:00;22.70;;;12.95;;
26512;SDS011;14186;53.822;10.152;2023-04-16T16:24:00;24.00;;;13.88;;
26512;SDS011;14186;53.822;10.152;2023-04-16T16:29:03;22.08;;;15.27;;
26512;SDS011;14186;53.822;10.152;2023-04-16T16:34:03;20.98;;;14.02;;
26512;SDS011;14186;53.822;10.152;2023-04-16T16:39:03;24.10;;;14.07;;
26512;SDS011;14186;53.822;10.152;2023-04-16T16:44:05;22.50;;;13.23;;
26512;SDS011;14186;53.822;10.152;2023-04-16T16:49:05;20.05;;;13.23;;
26512;SDS011;14186;53.822;10.152;2023-04-16T16:54:06;21.08;;;13.40;;
26512;SDS011;14186;53.822;10.152;2023-04-16T16:59:07;22.58;;;14.38;;
26512;SDS011;14186;53.822;10.152;2023-04-16T17:04:07;23.13;;;13.70;;
26512;SDS011;14186;53.822;10.152;2023-04-16T17:09:08;27.88;;;14.30;;
26512;SDS011;14186;53.822;10.152;2023-04-16T17:14:09;19.95;;;13.20;;
26512;SDS011;14186;53.822;10.152;2023-04-16T17:19:09;22.92;;;13.82;;
26512;SDS011;14186;53.822;10.152;2023-04-16T17:24:10;25.08;;;14.32;;
26512;SDS011;14186;53.822;10.152;2023-04-16T17:29:11;19.90;;;13.40;;
26512;SDS011;14186;53.822;10.152;2023-04-16T17:34:11;23.05;;;13.50;;
26512;SDS011;14186;53.822;10.152;2023-04-16T17:39:12;20.70;;;13.50;;
26512;SDS011;14186;53.822;10.152;2023-04-16T17:44:13;24.25;;;15.00;;
26512;SDS011;14186;53.822;10.152;2023-04-16T17:49:13;24.25;;;13.65;;
26512;SDS011;14186;53.822;10.152;2023-04-16T17:54:14;23.48;;;12.80;;
26512;SDS011;14186;53.822;10.152;2023-04-16T17:59:15;26.48;;;13.77;;
26512;SDS011;14186;53.822;10.152;2023-04-16T18:04:15;22.75;;;14.10;;
26512;SDS011;14186;53.822;10.152;2023-04-16T18:09:15;24.98;;;15.52;;
26512;SDS011;14186;53.822;10.152;2023-04-16T18:14:17;23.33;;;14.68;;
26512;SDS011;14186;53.822;10.152;2023-04-16T18:19:17;26.70;;;15.02;;
26512;SDS011;14186;53.822;10.152;2023-04-16T18:24:17;24.08;;;14.70;;
26512;SDS011;14186;53.822;10.152;2023-04-16T18:29:19;23.98;;;14.80;;
26512;SDS011;14186;53.822;10.152;2023-04-16T18:34:19;26.38;;;16.17;;
26512;SDS011;14186;53.822;10.152;2023-04-16T18:39:19;26.00;;;15.93;;
26512;SDS011;14186;53.822;10.152;2023-04-16T18:44:21;30.48;;;17.98;;
26512;SDS011;14186;53.822;10.152;2023-04-16T18:49:21;26.10;;;16.25;;
26512;SDS011;14186;53.822;10.152;2023-04-16T18:54:21;43.92;;;24.52;;
26512;SDS011;14186;53.822;10.152;2023-04-16T18:59:23;52.95;;;26.73;;
26512;SDS011;14186;53.822;10.152;2023-04-16T19:04:23;44.50;;;25.35;;
26512;SDS011;14186;53.822;10.152;2023-04-16T19:09:23;28.10;;;17.17;;
26512;SDS011;14186;53.822;10.152;2023-04-16T19:14:25;30.87;;;16.13;;
26512;SDS011;14186;53.822;10.152;2023-04-16T19:19:25;28.08;;;18.20;;
26512;SDS011;14186;53.822;10.152;2023-04-16T19:24:25;21.25;;;15.35;;
26512;SDS011;14186;53.822;10.152;2023-04-16T19:29:31;28.05;;;15.85;;
26512;SDS011;14186;53.822;10.152;2023-04-16T19:39:31;34.05;;;18.15;;
26512;SDS011;14186;53.822;10.152;2023-04-16T19:44:32;23.52;;;15.70;;
26512;SDS011;14186;53.822;10.152;2023-04-16T19:49:33;26.70;;;18.02;;
26512;SDS011;14186;53.822;10.152;2023-04-16T19:54:33;37.15;;;20.23;;
26512;SDS011;14186;53.822;10.152;2023-04-16T19:59:35;31.00;;;17.10;;
26512;SDS011;14186;53.822;10.152;2023-04-16T20:04:35;30.92;;;18.17;;
26512;SDS011;14186;53.822;10.152;2023-04-16T20:09:35;35.63;;;20.98;;
26512;SDS011;14186;53.822;10.152;2023-04-16T20:14:36;31.38;;;18.80;;
26512;SDS011;14186;53.822;10.152;2023-04-16T20:19:37;30.52;;;16.58;;
26512;SDS011;14186;53.822;10.152;2023-04-16T20:24:37;28.30;;;16.27;;
26512;SDS011;14186;53.822;10.152;2023-04-16T20:29:38;28.45;;;16.98;;
26512;SDS011;14186;53.822;10.152;2023-04-16T20:34:39;28.70;;;15.77;;
26512;SDS011;14186;53.822;10.152;2023-04-16T20:39:39;29.20;;;17.48;;
26512;SDS011;14186;53.822;10.152;2023-04-16T20:44:40;30.20;;;16.55;;
26512;SDS011;14186;53.822;10.152;2023-04-16T20:49:41;33.58;;;16.60;;
26512;SDS011;14186;53.822;10.152;2023-04-16T20:54:41;30.60;;;17.25;;
26512;SDS011;14186;53.822;10.152;2023-04-16T20:59:42;31.73;;;18.00;;
26512;SDS011;14186;53.822;10.152;2023-04-16T21:04:43;29.45;;;17.23;;
26512;SDS011;14186;53.822;10.152;2023-04-16T21:09:43;35.70;;;19.42;;
26512;SDS011;14186;53.822;10.152;2023-04-16T21:14:44;34.92;;;18.15;;
26512;SDS011;14186;53.822;10.152;2023-04-16T21:19:44;26.88;;;16.77;;
26512;SDS011;14186;53.822;10.152;2023-04-16T21:24:45;29.50;;;18.52;;
26512;SDS011;14186;53.822;10.152;2023-04-16T21:29:46;28.25;;;17.27;;
26512;SDS011;14186;53.822;10.152;2023-04-16T21:34:47;24.88;;;15.98;;
26512;SDS011;14186;53.822;10.152;2023-04-16T21:39:47;26.02;;;16.13;;
26512;SDS011;14186;53.822;10.152;2023-04-16T21:44:48;26.70;;;16.50;;
26512;SDS011;14186;53.822;10.152;2023-04-16T21:49:49;28.85;;;17.38;;
26512;SDS011;14186;53.822;10.152;2023-04-16T21:54:49;27.02;;;16.55;;
26512;SDS011;14186;53.822;10.152;2023-04-16T21:59:50;25.95;;;15.68;;
26512;SDS011;14186;53.822;10.152;2023-04-16T22:04:51;28.00;;;17.02;;
26512;SDS011;14186;53.822;10.152;2023-04-16T22:09:51;27.38;;;17.75;;
26512;SDS011;14186;53.822;10.152;2023-04-16T22:14:52;30.40;;;17.25;;
26512;SDS011;14186;53.822;10.152;2023-04-16T22:19:52;28.02;;;17.38;;
26512;SDS011;14186;53.822;10.152;2023-04-16T22:24:53;32.40;;;18.73;;
26512;SDS011;14186;53.822;10.152;2023-04-16T22:29:54;27.90;;;17.40;;
26512;SDS011;14186;53.822;10.152;2023-04-16T22:34:54;31.95;;;17.88;;
26512;SDS011;14186;53.822;10.152;2023-04-16T22:39:55;29.48;;;17.17;;
26512;SDS011;14186;53.822;10.152;2023-04-16T22:44:56;32.97;;;17.58;;
26512;SDS011;14186;53.822;10.152;2023-04-16T22:49:56;32.17;;;17.80;;
26512;SDS011;14186;53.822;10.152;2023-04-16T22:54:57;30.90;;;17.73;;
26512;SDS011;14186;53.822;10.152;2023-04-16T22:59:58;31.60;;;18.00;;
26512;SDS011;14186;53.822;10.152;2023-04-16T23:04:58;29.70;;;17.45;;
26512;SDS011;14186;53.822;10.152;2023-04-16T23:09:59;33.33;;;17.73;;
26512;SDS011;14186;53.822;10.152;2023-04-16T23:15:00;34.47;;;19.48;;
26512;SDS011;14186;53.822;10.152;2023-04-16T23:20:00;28.13;;;17.13;;
26512;SDS011;14186;53.822;10.152;2023-04-16T23:25:01;34.55;;;17.90;;
26512;SDS011;14186;53.822;10.152;2023-04-16T23:30:03;36.20;;;19.63;;
26512;SDS011;14186;53.822;10.152;2023-04-16T23:35:03;35.53;;;20.25;;
26512;SDS011;14186;53.822;10.152;2023-04-16T23:40:04;33.47;;;19.05;;
26512;SDS011;14186;53.822;10.152;2023-04-16T23:45:06;31.85;;;18.67;;
26512;SDS011;14186;53.822;10.152;2023-04-16T23:50:07;33.63;;;18.02;;
26512;SDS011;14186;53.822;10.152;2023-04-16T23:55:07;36.77;;;21.13;;
